sensor_id;sensor_type;location;lat;lon;timestamp;P1;durP1;ratioP1;P2;durP2;ratioP2
18726;SDS011;9492;51.888;5.186;2023-02-26T00:00:31;5.30;;;3.40;;
18726;SDS011;9492;51.888;5.186;2023-02-26T00:02:58;4.07;;;2.87;;
18726;SDS011;9492;51.888;5.186;2023-02-26T00:05:25;5.13;;;3.13;;
18726;SDS011;9492;51.888;5.186;2023-02-26T00:07:51;7.63;;;3.00;;
18726;SDS011;9492;51.888;5.186;2023-02-26T00:10:18;6.70;;;2.80;;
18726;SDS011;9492;51.888;5.186;2023-02-26T00:12:44;6.73;;;3.23;;
18726;SDS011;9492;51.888;5.186;2023-02-26T00:15:11;4.53;;;2.77;;
18726;SDS011;9492;51.888;5.186;2023-02-26T00:20:37;5.53;;;2.17;;
18726;SDS011;9492;51.888;5.186;2023-02-26T00:23:03;4.83;;;2.07;;
18726;SDS011;9492;51.888;5.186;2023-02-26T00:25:29;6.60;;;2.67;;
18726;SDS011;9492;51.888;5.186;2023-02-26T00:27:56;3.13;;;1.77;;
18726;SDS011;9492;51.888;5.186;2023-02-26T00:30:22;5.23;;;2.53;;
18726;SDS011;9492;51.888;5.186;2023-02-26T00:32:51;3.27;;;1.90;;
18726;SDS011;9492;51.888;5.186;2023-02-26T00:35:17;3.97;;;1.90;;
18726;SDS011;9492;51.888;5.186;2023-02-26T00:42:48;4.13;;;1.83;;
18726;SDS011;9492;51.888;5.186;2023-02-26T00:45:17;6.50;;;1.93;;
18726;SDS011;9492;51.888;5.186;2023-02-26T00:50:28;5.80;;;1.93;;
18726;SDS011;9492;51.888;5.186;2023-02-26T00:55:39;4.90;;;2.10;;
18726;SDS011;9492;51.888;5.186;2023-02-26T00:58:05;5.73;;;2.00;;
18726;SDS011;9492;51.888;5.186;2023-02-26T01:00:31;4.63;;;1.50;;
18726;SDS011;9492;51.888;5.186;2023-02-26T01:02:57;6.10;;;2.10;;
18726;SDS011;9492;51.888;5.186;2023-02-26T01:05:23;4.47;;;1.90;;
18726;SDS011;9492;51.888;5.186;2023-02-26T01:08:32;4.23;;;1.70;;
18726;SDS011;9492;51.888;5.186;2023-02-26T01:10:38;4.47;;;1.60;;
18726;SDS011;9492;51.888;5.186;2023-02-26T01:13:05;6.33;;;2.20;;
18726;SDS011;9492;51.888;5.186;2023-02-26T01:15:31;5.17;;;2.10;;
18726;SDS011;9492;51.888;5.186;2023-02-26T01:18:04;4.57;;;1.70;;
18726;SDS011;9492;51.888;5.186;2023-02-26T01:20:53;8.23;;;2.03;;
18726;SDS011;9492;51.888;5.186;2023-02-26T01:23:19;3.63;;;1.53;;
18726;SDS011;9492;51.888;5.186;2023-02-26T01:25:49;6.07;;;1.90;;
18726;SDS011;9492;51.888;5.186;2023-02-26T01:28:16;6.67;;;2.00;;
18726;SDS011;9492;51.888;5.186;2023-02-26T01:30:42;2.77;;;1.60;;
18726;SDS011;9492;51.888;5.186;2023-02-26T01:33:13;4.57;;;1.50;;
18726;SDS011;9492;51.888;5.186;2023-02-26T01:36:16;5.10;;;1.53;;
18726;SDS011;9492;51.888;5.186;2023-02-26T01:38:45;4.87;;;1.90;;
18726;SDS011;9492;51.888;5.186;2023-02-26T01:41:29;4.80;;;1.93;;
18726;SDS011;9492;51.888;5.186;2023-02-26T01:44:02;4.23;;;1.73;;
18726;SDS011;9492;51.888;5.186;2023-02-26T01:46:32;2.13;;;1.50;;
18726;SDS011;9492;51.888;5.186;2023-02-26T01:48:59;5.50;;;1.53;;
18726;SDS011;9492;51.888;5.186;2023-02-26T01:51:45;1.67;;;1.27;;
18726;SDS011;9492;51.888;5.186;2023-02-26T01:54:13;5.13;;;1.57;;
18726;SDS011;9492;51.888;5.186;2023-02-26T01:56:39;4.63;;;1.63;;
18726;SDS011;9492;51.888;5.186;2023-02-26T01:59:08;4.60;;;2.10;;
18726;SDS011;9492;51.888;5.186;2023-02-26T02:01:36;3.33;;;1.37;;
18726;SDS011;9492;51.888;5.186;2023-02-26T02:04:03;5.90;;;1.67;;
18726;SDS011;9492;51.888;5.186;2023-02-26T02:06:29;4.83;;;1.57;;
18726;SDS011;9492;51.888;5.186;2023-02-26T02:08:55;3.47;;;2.00;;
18726;SDS011;9492;51.888;5.186;2023-02-26T02:11:22;3.60;;;1.90;;
18726;SDS011;9492;51.888;5.186;2023-02-26T02:23:56;7.50;;;2.03;;
18726;SDS011;9492;51.888;5.186;2023-02-26T02:31:38;6.90;;;2.00;;
18726;SDS011;9492;51.888;5.186;2023-02-26T02:34:14;4.83;;;1.90;;
18726;SDS011;9492;51.888;5.186;2023-02-26T02:36:49;4.17;;;1.13;;
18726;SDS011;9492;51.888;5.186;2023-02-26T02:39:27;3.33;;;1.43;;
18726;SDS011;9492;51.888;5.186;2023-02-26T02:44:44;3.43;;;1.10;;
18726;SDS011;9492;51.888;5.186;2023-02-26T02:47:11;2.80;;;1.23;;
18726;SDS011;9492;51.888;5.186;2023-02-26T02:49:50;4.53;;;1.10;;
18726;SDS011;9492;51.888;5.186;2023-02-26T02:55:19;2.77;;;1.20;;
18726;SDS011;9492;51.888;5.186;2023-02-26T02:57:47;2.83;;;1.63;;
18726;SDS011;9492;51.888;5.186;2023-02-26T03:00:15;2.13;;;1.33;;
18726;SDS011;9492;51.888;5.186;2023-02-26T03:02:48;6.13;;;1.60;;
18726;SDS011;9492;51.888;5.186;2023-02-26T03:05:15;4.60;;;1.43;;
18726;SDS011;9492;51.888;5.186;2023-02-26T03:07:44;2.93;;;1.33;;
18726;SDS011;9492;51.888;5.186;2023-02-26T03:10:11;4.90;;;1.13;;
18726;SDS011;9492;51.888;5.186;2023-02-26T03:12:38;5.50;;;1.20;;
18726;SDS011;9492;51.888;5.186;2023-02-26T03:15:04;5.53;;;1.60;;
18726;SDS011;9492;51.888;5.186;2023-02-26T03:17:50;4.53;;;1.40;;
18726;SDS011;9492;51.888;5.186;2023-02-26T03:20:25;3.63;;;1.43;;
18726;SDS011;9492;51.888;5.186;2023-02-26T03:22:57;2.30;;;1.37;;
18726;SDS011;9492;51.888;5.186;2023-02-26T03:25:28;4.60;;;1.47;;
18726;SDS011;9492;51.888;5.186;2023-02-26T03:33:11;4.00;;;1.47;;
18726;SDS011;9492;51.888;5.186;2023-02-26T03:38:12;4.30;;;1.17;;
18726;SDS011;9492;51.888;5.186;2023-02-26T03:40:51;3.40;;;1.40;;
18726;SDS011;9492;51.888;5.186;2023-02-26T03:45:45;3.87;;;1.30;;
18726;SDS011;9492;51.888;5.186;2023-02-26T03:48:12;3.87;;;1.17;;
18726;SDS011;9492;51.888;5.186;2023-02-26T03:50:43;2.63;;;1.40;;
18726;SDS011;9492;51.888;5.186;2023-02-26T03:53:11;5.93;;;1.10;;
18726;SDS011;9492;51.888;5.186;2023-02-26T03:55:39;5.93;;;1.63;;
18726;SDS011;9492;51.888;5.186;2023-02-26T03:58:06;4.77;;;1.30;;
18726;SDS011;9492;51.888;5.186;2023-02-26T04:00:32;4.00;;;1.33;;
18726;SDS011;9492;51.888;5.186;2023-02-26T04:05:45;2.93;;;1.17;;
18726;SDS011;9492;51.888;5.186;2023-02-26T04:08:12;2.83;;;1.40;;
18726;SDS011;9492;51.888;5.186;2023-02-26T04:13:04;3.50;;;1.37;;
18726;SDS011;9492;51.888;5.186;2023-02-26T04:15:30;4.50;;;1.30;;
18726;SDS011;9492;51.888;5.186;2023-02-26T04:17:56;3.57;;;1.30;;
18726;SDS011;9492;51.888;5.186;2023-02-26T04:20:22;3.47;;;1.57;;
18726;SDS011;9492;51.888;5.186;2023-02-26T04:22:48;3.90;;;1.10;;
18726;SDS011;9492;51.888;5.186;2023-02-26T04:25:15;3.27;;;1.20;;
18726;SDS011;9492;51.888;5.186;2023-02-26T04:27:41;2.17;;;1.30;;
18726;SDS011;9492;51.888;5.186;2023-02-26T04:30:08;2.20;;;1.10;;
18726;SDS011;9492;51.888;5.186;2023-02-26T04:32:34;6.97;;;1.13;;
18726;SDS011;9492;51.888;5.186;2023-02-26T04:35:00;11.70;;;1.90;;
18726;SDS011;9492;51.888;5.186;2023-02-26T04:37:26;2.33;;;1.13;;
18726;SDS011;9492;51.888;5.186;2023-02-26T04:39:52;1.90;;;0.97;;
18726;SDS011;9492;51.888;5.186;2023-02-26T04:42:18;2.33;;;1.00;;
18726;SDS011;9492;51.888;5.186;2023-02-26T04:44:44;2.33;;;1.20;;
18726;SDS011;9492;51.888;5.186;2023-02-26T04:47:10;3.37;;;1.27;;
18726;SDS011;9492;51.888;5.186;2023-02-26T04:49:36;2.53;;;1.40;;
18726;SDS011;9492;51.888;5.186;2023-02-26T04:52:02;2.40;;;1.43;;
18726;SDS011;9492;51.888;5.186;2023-02-26T04:54:29;2.10;;;1.07;;
18726;SDS011;9492;51.888;5.186;2023-02-26T04:56:55;3.77;;;1.30;;
18726;SDS011;9492;51.888;5.186;2023-02-26T04:59:21;2.03;;;1.30;;
18726;SDS011;9492;51.888;5.186;2023-02-26T05:01:47;4.10;;;1.30;;
18726;SDS011;9492;51.888;5.186;2023-02-26T05:04:13;2.60;;;1.07;;
18726;SDS011;9492;51.888;5.186;2023-02-26T05:06:39;3.03;;;1.10;;
18726;SDS011;9492;51.888;5.186;2023-02-26T05:09:06;1.13;;;0.90;;
18726;SDS011;9492;51.888;5.186;2023-02-26T05:11:32;5.63;;;1.27;;
18726;SDS011;9492;51.888;5.186;2023-02-26T05:13:58;1.47;;;0.90;;
18726;SDS011;9492;51.888;5.186;2023-02-26T05:16:24;2.77;;;1.20;;
18726;SDS011;9492;51.888;5.186;2023-02-26T05:18:50;3.20;;;1.10;;
18726;SDS011;9492;51.888;5.186;2023-02-26T05:21:16;1.53;;;1.00;;
18726;SDS011;9492;51.888;5.186;2023-02-26T05:23:42;2.70;;;0.90;;
18726;SDS011;9492;51.888;5.186;2023-02-26T05:26:08;2.07;;;1.33;;
18726;SDS011;9492;51.888;5.186;2023-02-26T05:28:37;4.20;;;1.20;;
18726;SDS011;9492;51.888;5.186;2023-02-26T05:31:03;2.53;;;1.20;;
18726;SDS011;9492;51.888;5.186;2023-02-26T05:33:29;3.13;;;1.27;;
18726;SDS011;9492;51.888;5.186;2023-02-26T05:35:58;1.83;;;0.83;;
18726;SDS011;9492;51.888;5.186;2023-02-26T05:38:24;4.07;;;1.23;;
18726;SDS011;9492;51.888;5.186;2023-02-26T05:40:50;3.13;;;1.10;;
18726;SDS011;9492;51.888;5.186;2023-02-26T05:43:17;7.80;;;1.40;;
18726;SDS011;9492;51.888;5.186;2023-02-26T05:45:43;3.10;;;1.07;;
18726;SDS011;9492;51.888;5.186;2023-02-26T05:48:09;2.30;;;0.93;;
18726;SDS011;9492;51.888;5.186;2023-02-26T05:50:35;1.47;;;1.00;;
18726;SDS011;9492;51.888;5.186;2023-02-26T05:53:01;3.67;;;1.17;;
18726;SDS011;9492;51.888;5.186;2023-02-26T05:55:27;3.30;;;1.10;;
18726;SDS011;9492;51.888;5.186;2023-02-26T05:57:53;2.80;;;0.93;;
18726;SDS011;9492;51.888;5.186;2023-02-26T06:00:19;2.20;;;1.10;;
18726;SDS011;9492;51.888;5.186;2023-02-26T06:02:45;4.20;;;1.83;;
18726;SDS011;9492;51.888;5.186;2023-02-26T06:05:11;4.10;;;1.07;;
18726;SDS011;9492;51.888;5.186;2023-02-26T06:07:37;2.10;;;0.90;;
18726;SDS011;9492;51.888;5.186;2023-02-26T06:10:03;1.07;;;0.90;;
18726;SDS011;9492;51.888;5.186;2023-02-26T06:12:29;3.77;;;1.10;;
18726;SDS011;9492;51.888;5.186;2023-02-26T06:14:55;2.83;;;1.10;;
18726;SDS011;9492;51.888;5.186;2023-02-26T06:17:21;3.73;;;1.57;;
18726;SDS011;9492;51.888;5.186;2023-02-26T06:19:47;1.90;;;1.10;;
18726;SDS011;9492;51.888;5.186;2023-02-26T06:22:13;4.03;;;1.23;;
18726;SDS011;9492;51.888;5.186;2023-02-26T06:24:39;2.43;;;1.13;;
18726;SDS011;9492;51.888;5.186;2023-02-26T06:27:05;3.97;;;1.07;;
18726;SDS011;9492;51.888;5.186;2023-02-26T06:29:31;3.80;;;1.40;;
18726;SDS011;9492;51.888;5.186;2023-02-26T06:31:58;1.40;;;1.10;;
18726;SDS011;9492;51.888;5.186;2023-02-26T06:34:24;2.60;;;1.33;;
18726;SDS011;9492;51.888;5.186;2023-02-26T06:36:50;3.67;;;1.10;;
18726;SDS011;9492;51.888;5.186;2023-02-26T06:39:16;2.73;;;1.10;;
18726;SDS011;9492;51.888;5.186;2023-02-26T06:41:42;3.23;;;1.20;;
18726;SDS011;9492;51.888;5.186;2023-02-26T06:44:09;3.27;;;1.60;;
18726;SDS011;9492;51.888;5.186;2023-02-26T06:46:35;1.70;;;1.13;;
18726;SDS011;9492;51.888;5.186;2023-02-26T06:49:02;2.03;;;1.00;;
18726;SDS011;9492;51.888;5.186;2023-02-26T06:51:28;2.40;;;1.00;;
18726;SDS011;9492;51.888;5.186;2023-02-26T06:53:54;1.87;;;1.07;;
18726;SDS011;9492;51.888;5.186;2023-02-26T06:56:20;2.77;;;1.10;;
18726;SDS011;9492;51.888;5.186;2023-02-26T06:58:47;1.97;;;1.10;;
18726;SDS011;9492;51.888;5.186;2023-02-26T07:01:13;2.97;;;1.23;;
18726;SDS011;9492;51.888;5.186;2023-02-26T07:03:39;3.83;;;1.30;;
18726;SDS011;9492;51.888;5.186;2023-02-26T07:06:06;4.30;;;1.33;;
18726;SDS011;9492;51.888;5.186;2023-02-26T07:08:35;4.43;;;1.07;;
18726;SDS011;9492;51.888;5.186;2023-02-26T07:11:01;2.03;;;1.27;;
18726;SDS011;9492;51.888;5.186;2023-02-26T07:16:24;3.33;;;1.10;;
18726;SDS011;9492;51.888;5.186;2023-02-26T07:18:50;3.70;;;1.00;;
18726;SDS011;9492;51.888;5.186;2023-02-26T07:21:16;3.13;;;1.00;;
18726;SDS011;9492;51.888;5.186;2023-02-26T07:23:43;1.57;;;1.27;;
18726;SDS011;9492;51.888;5.186;2023-02-26T07:26:09;4.53;;;1.20;;
18726;SDS011;9492;51.888;5.186;2023-02-26T07:28:36;2.73;;;1.20;;
18726;SDS011;9492;51.888;5.186;2023-02-26T07:31:02;6.17;;;1.73;;
18726;SDS011;9492;51.888;5.186;2023-02-26T07:33:28;3.53;;;1.40;;
18726;SDS011;9492;51.888;5.186;2023-02-26T07:35:55;3.73;;;1.23;;
18726;SDS011;9492;51.888;5.186;2023-02-26T07:38:23;3.07;;;1.30;;
18726;SDS011;9492;51.888;5.186;2023-02-26T07:40:49;1.93;;;0.97;;
18726;SDS011;9492;51.888;5.186;2023-02-26T07:43:15;4.70;;;1.30;;
18726;SDS011;9492;51.888;5.186;2023-02-26T07:45:41;3.33;;;1.20;;
18726;SDS011;9492;51.888;5.186;2023-02-26T07:48:07;6.07;;;1.30;;
18726;SDS011;9492;51.888;5.186;2023-02-26T07:50:36;2.43;;;1.10;;
18726;SDS011;9492;51.888;5.186;2023-02-26T07:53:02;3.27;;;0.97;;
18726;SDS011;9492;51.888;5.186;2023-02-26T07:55:30;4.60;;;1.00;;
18726;SDS011;9492;51.888;5.186;2023-02-26T07:57:56;4.23;;;1.20;;
18726;SDS011;9492;51.888;5.186;2023-02-26T08:00:22;3.83;;;1.27;;
18726;SDS011;9492;51.888;5.186;2023-02-26T08:02:48;2.03;;;0.80;;
18726;SDS011;9492;51.888;5.186;2023-02-26T08:05:14;3.50;;;1.20;;
18726;SDS011;9492;51.888;5.186;2023-02-26T08:07:40;3.23;;;1.17;;
18726;SDS011;9492;51.888;5.186;2023-02-26T08:10:07;2.83;;;0.90;;
18726;SDS011;9492;51.888;5.186;2023-02-26T08:12:36;2.30;;;1.07;;
18726;SDS011;9492;51.888;5.186;2023-02-26T08:15:03;2.57;;;0.90;;
18726;SDS011;9492;51.888;5.186;2023-02-26T08:17:35;1.70;;;0.70;;
18726;SDS011;9492;51.888;5.186;2023-02-26T08:20:01;2.10;;;0.90;;
18726;SDS011;9492;51.888;5.186;2023-02-26T08:22:29;2.30;;;0.90;;
18726;SDS011;9492;51.888;5.186;2023-02-26T08:24:55;2.40;;;1.00;;
18726;SDS011;9492;51.888;5.186;2023-02-26T08:27:22;1.67;;;1.00;;
18726;SDS011;9492;51.888;5.186;2023-02-26T08:29:48;3.40;;;1.20;;
18726;SDS011;9492;51.888;5.186;2023-02-26T08:32:14;1.27;;;1.00;;
18726;SDS011;9492;51.888;5.186;2023-02-26T08:34:41;1.10;;;0.90;;
18726;SDS011;9492;51.888;5.186;2023-02-26T08:37:07;4.60;;;1.10;;
18726;SDS011;9492;51.888;5.186;2023-02-26T08:42:05;3.23;;;0.93;;
18726;SDS011;9492;51.888;5.186;2023-02-26T08:44:31;2.07;;;1.20;;
18726;SDS011;9492;51.888;5.186;2023-02-26T08:46:57;3.20;;;1.00;;
18726;SDS011;9492;51.888;5.186;2023-02-26T08:49:23;2.93;;;1.20;;
18726;SDS011;9492;51.888;5.186;2023-02-26T08:51:49;1.47;;;0.90;;
18726;SDS011;9492;51.888;5.186;2023-02-26T08:54:15;1.73;;;0.87;;
18726;SDS011;9492;51.888;5.186;2023-02-26T08:56:41;3.87;;;0.90;;
18726;SDS011;9492;51.888;5.186;2023-02-26T08:59:08;5.80;;;1.07;;
18726;SDS011;9492;51.888;5.186;2023-02-26T09:01:35;5.37;;;1.27;;
18726;SDS011;9492;51.888;5.186;2023-02-26T09:04:01;1.40;;;1.13;;
18726;SDS011;9492;51.888;5.186;2023-02-26T09:06:30;2.27;;;1.30;;
18726;SDS011;9492;51.888;5.186;2023-02-26T09:08:57;3.47;;;1.10;;
18726;SDS011;9492;51.888;5.186;2023-02-26T09:11:23;3.93;;;0.93;;
18726;SDS011;9492;51.888;5.186;2023-02-26T09:13:51;3.90;;;1.07;;
18726;SDS011;9492;51.888;5.186;2023-02-26T09:16:17;2.90;;;1.00;;
18726;SDS011;9492;51.888;5.186;2023-02-26T09:18:43;4.63;;;1.40;;
18726;SDS011;9492;51.888;5.186;2023-02-26T09:21:09;6.27;;;1.47;;
18726;SDS011;9492;51.888;5.186;2023-02-26T09:23:35;4.27;;;0.93;;
18726;SDS011;9492;51.888;5.186;2023-02-26T09:26:01;1.67;;;1.03;;
18726;SDS011;9492;51.888;5.186;2023-02-26T09:28:27;1.70;;;1.23;;
18726;SDS011;9492;51.888;5.186;2023-02-26T09:30:54;3.83;;;1.40;;
18726;SDS011;9492;51.888;5.186;2023-02-26T09:33:20;2.67;;;1.10;;
18726;SDS011;9492;51.888;5.186;2023-02-26T09:35:50;3.43;;;1.57;;
18726;SDS011;9492;51.888;5.186;2023-02-26T09:38:16;3.50;;;1.03;;
18726;SDS011;9492;51.888;5.186;2023-02-26T09:43:46;2.50;;;1.37;;
18726;SDS011;9492;51.888;5.186;2023-02-26T09:46:12;3.00;;;1.10;;
18726;SDS011;9492;51.888;5.186;2023-02-26T09:48:41;4.20;;;0.93;;
18726;SDS011;9492;51.888;5.186;2023-02-26T09:51:17;1.63;;;1.17;;
18726;SDS011;9492;51.888;5.186;2023-02-26T09:53:44;1.63;;;0.90;;
18726;SDS011;9492;51.888;5.186;2023-02-26T09:56:15;3.80;;;0.80;;
18726;SDS011;9492;51.888;5.186;2023-02-26T09:58:42;3.87;;;0.90;;
18726;SDS011;9492;51.888;5.186;2023-02-26T10:13:46;9.10;;;1.73;;
18726;SDS011;9492;51.888;5.186;2023-02-26T10:16:17;3.40;;;2.60;;
18726;SDS011;9492;51.888;5.186;2023-02-26T10:18:49;3.33;;;1.60;;
18726;SDS011;9492;51.888;5.186;2023-02-26T10:24:05;2.00;;;1.00;;
18726;SDS011;9492;51.888;5.186;2023-02-26T10:26:44;3.67;;;1.00;;
18726;SDS011;9492;51.888;5.186;2023-02-26T10:31:54;2.47;;;0.80;;
18726;SDS011;9492;51.888;5.186;2023-02-26T10:34:30;2.33;;;1.00;;
18726;SDS011;9492;51.888;5.186;2023-02-26T10:37:04;0.70;;;0.70;;
18726;SDS011;9492;51.888;5.186;2023-02-26T10:42:09;0.90;;;0.50;;
18726;SDS011;9492;51.888;5.186;2023-02-26T10:44:46;0.70;;;0.70;;
18726;SDS011;9492;51.888;5.186;2023-02-26T10:52:18;1.23;;;0.90;;
18726;SDS011;9492;51.888;5.186;2023-02-26T10:57:30;0.83;;;0.80;;
18726;SDS011;9492;51.888;5.186;2023-02-26T11:00:00;1.63;;;0.90;;
18726;SDS011;9492;51.888;5.186;2023-02-26T11:04:58;1.70;;;0.67;;
18726;SDS011;9492;51.888;5.186;2023-02-26T11:07:25;1.90;;;0.97;;
18726;SDS011;9492;51.888;5.186;2023-02-26T11:09:55;1.80;;;0.80;;
18726;SDS011;9492;51.888;5.186;2023-02-26T11:12:25;1.33;;;0.70;;
18726;SDS011;9492;51.888;5.186;2023-02-26T11:14:51;1.30;;;0.77;;
18726;SDS011;9492;51.888;5.186;2023-02-26T11:22:45;0.97;;;0.67;;
18726;SDS011;9492;51.888;5.186;2023-02-26T11:25:16;2.33;;;1.00;;
18726;SDS011;9492;51.888;5.186;2023-02-26T11:27:42;3.97;;;1.60;;
18726;SDS011;9492;51.888;5.186;2023-02-26T11:30:19;3.00;;;1.50;;
18726;SDS011;9492;51.888;5.186;2023-02-26T11:32:50;5.80;;;1.87;;
18726;SDS011;9492;51.888;5.186;2023-02-26T11:35:18;1.73;;;1.10;;
18726;SDS011;9492;51.888;5.186;2023-02-26T11:37:46;2.90;;;1.50;;
18726;SDS011;9492;51.888;5.186;2023-02-26T11:40:14;2.50;;;1.20;;
18726;SDS011;9492;51.888;5.186;2023-02-26T11:42:49;2.00;;;1.27;;
18726;SDS011;9492;51.888;5.186;2023-02-26T11:45:17;2.97;;;1.03;;
18726;SDS011;9492;51.888;5.186;2023-02-26T11:47:45;0.90;;;0.70;;
18726;SDS011;9492;51.888;5.186;2023-02-26T11:50:18;4.10;;;1.10;;
18726;SDS011;9492;51.888;5.186;2023-02-26T11:52:47;2.13;;;0.90;;
18726;SDS011;9492;51.888;5.186;2023-02-26T11:57:56;0.97;;;0.80;;
18726;SDS011;9492;51.888;5.186;2023-02-26T12:02:55;0.60;;;0.60;;
18726;SDS011;9492;51.888;5.186;2023-02-26T12:05:23;1.67;;;0.70;;
18726;SDS011;9492;51.888;5.186;2023-02-26T12:07:51;2.53;;;0.77;;
18726;SDS011;9492;51.888;5.186;2023-02-26T12:10:18;1.60;;;0.70;;
18726;SDS011;9492;51.888;5.186;2023-02-26T12:13:01;1.63;;;0.70;;
18726;SDS011;9492;51.888;5.186;2023-02-26T12:15:30;2.67;;;1.00;;
18726;SDS011;9492;51.888;5.186;2023-02-26T12:20:28;1.73;;;1.00;;
18726;SDS011;9492;51.888;5.186;2023-02-26T12:26:15;2.50;;;0.80;;
18726;SDS011;9492;51.888;5.186;2023-02-26T12:36:10;1.60;;;1.03;;
18726;SDS011;9492;51.888;5.186;2023-02-26T12:38:58;2.50;;;1.00;;
18726;SDS011;9492;51.888;5.186;2023-02-26T12:47:03;4.30;;;1.90;;
18726;SDS011;9492;51.888;5.186;2023-02-26T12:52:23;2.33;;;1.73;;
18726;SDS011;9492;51.888;5.186;2023-02-26T12:55:09;2.77;;;1.27;;
18726;SDS011;9492;51.888;5.186;2023-02-26T12:57:43;2.00;;;1.20;;
18726;SDS011;9492;51.888;5.186;2023-02-26T13:07:39;1.20;;;0.83;;
18726;SDS011;9492;51.888;5.186;2023-02-26T13:18:59;1.50;;;0.70;;
18726;SDS011;9492;51.888;5.186;2023-02-26T13:21:16;2.57;;;0.97;;
18726;SDS011;9492;51.888;5.186;2023-02-26T13:23:51;3.57;;;0.90;;
18726;SDS011;9492;51.888;5.186;2023-02-26T13:26:18;1.43;;;1.17;;
18726;SDS011;9492;51.888;5.186;2023-02-26T13:31:19;2.10;;;0.70;;
18726;SDS011;9492;51.888;5.186;2023-02-26T13:33:45;1.27;;;1.00;;
18726;SDS011;9492;51.888;5.186;2023-02-26T13:36:13;1.33;;;0.60;;
18726;SDS011;9492;51.888;5.186;2023-02-26T13:51:30;2.87;;;2.30;;
18726;SDS011;9492;51.888;5.186;2023-02-26T13:53:59;2.27;;;0.77;;
18726;SDS011;9492;51.888;5.186;2023-02-26T14:09:14;1.43;;;0.63;;
18726;SDS011;9492;51.888;5.186;2023-02-26T14:14:34;2.13;;;0.67;;
18726;SDS011;9492;51.888;5.186;2023-02-26T14:19:35;0.70;;;0.60;;
18726;SDS011;9492;51.888;5.186;2023-02-26T14:22:13;1.57;;;0.50;;
18726;SDS011;9492;51.888;5.186;2023-02-26T14:35:33;0.83;;;0.60;;
18726;SDS011;9492;51.888;5.186;2023-02-26T14:38:02;1.07;;;0.80;;
18726;SDS011;9492;51.888;5.186;2023-02-26T14:40:29;1.50;;;0.80;;
18726;SDS011;9492;51.888;5.186;2023-02-26T14:42:57;0.70;;;0.70;;
18726;SDS011;9492;51.888;5.186;2023-02-26T14:45:28;4.60;;;0.80;;
18726;SDS011;9492;51.888;5.186;2023-02-26T14:47:58;1.77;;;1.37;;
18726;SDS011;9492;51.888;5.186;2023-02-26T14:50:28;2.27;;;0.80;;
18726;SDS011;9492;51.888;5.186;2023-02-26T15:08:35;5.40;;;1.20;;
18726;SDS011;9492;51.888;5.186;2023-02-26T15:24:30;1.20;;;1.10;;
18726;SDS011;9492;51.888;5.186;2023-02-26T15:27:00;0.93;;;0.70;;
18726;SDS011;9492;51.888;5.186;2023-02-26T15:29:30;1.93;;;0.93;;
18726;SDS011;9492;51.888;5.186;2023-02-26T15:31:58;1.53;;;0.90;;
18726;SDS011;9492;51.888;5.186;2023-02-26T15:34:28;1.63;;;0.80;;
18726;SDS011;9492;51.888;5.186;2023-02-26T15:36:55;4.67;;;1.23;;
18726;SDS011;9492;51.888;5.186;2023-02-26T15:39:22;3.93;;;0.83;;
18726;SDS011;9492;51.888;5.186;2023-02-26T15:41:49;1.43;;;0.87;;
18726;SDS011;9492;51.888;5.186;2023-02-26T15:44:19;2.10;;;0.73;;
18726;SDS011;9492;51.888;5.186;2023-02-26T15:46:51;2.23;;;0.77;;
18726;SDS011;9492;51.888;5.186;2023-02-26T15:49:28;0.60;;;0.60;;
18726;SDS011;9492;51.888;5.186;2023-02-26T15:51:57;1.07;;;0.90;;
18726;SDS011;9492;51.888;5.186;2023-02-26T15:54:27;2.40;;;1.37;;
18726;SDS011;9492;51.888;5.186;2023-02-26T15:56:56;1.13;;;0.70;;
18726;SDS011;9492;51.888;5.186;2023-02-26T15:59:24;0.90;;;0.70;;
18726;SDS011;9492;51.888;5.186;2023-02-26T16:01:51;3.17;;;0.80;;
18726;SDS011;9492;51.888;5.186;2023-02-26T16:04:18;1.87;;;0.60;;
18726;SDS011;9492;51.888;5.186;2023-02-26T16:06:46;1.07;;;0.70;;
18726;SDS011;9492;51.888;5.186;2023-02-26T16:09:17;0.73;;;0.73;;
18726;SDS011;9492;51.888;5.186;2023-02-26T16:11:43;1.80;;;0.73;;
18726;SDS011;9492;51.888;5.186;2023-02-26T16:14:16;1.73;;;0.70;;
18726;SDS011;9492;51.888;5.186;2023-02-26T16:16:44;2.80;;;0.90;;
18726;SDS011;9492;51.888;5.186;2023-02-26T16:19:14;3.40;;;0.70;;
18726;SDS011;9492;51.888;5.186;2023-02-26T16:21:40;2.37;;;0.70;;
18726;SDS011;9492;51.888;5.186;2023-02-26T16:24:08;2.27;;;0.63;;
18726;SDS011;9492;51.888;5.186;2023-02-26T16:26:38;3.03;;;0.93;;
18726;SDS011;9492;51.888;5.186;2023-02-26T16:29:16;1.13;;;0.77;;
18726;SDS011;9492;51.888;5.186;2023-02-26T16:31:44;2.00;;;1.40;;
18726;SDS011;9492;51.888;5.186;2023-02-26T16:34:29;2.07;;;0.90;;
18726;SDS011;9492;51.888;5.186;2023-02-26T16:36:57;3.70;;;0.80;;
18726;SDS011;9492;51.888;5.186;2023-02-26T16:39:25;1.23;;;0.90;;
18726;SDS011;9492;51.888;5.186;2023-02-26T16:44:48;1.17;;;0.90;;
18726;SDS011;9492;51.888;5.186;2023-02-26T16:47:15;0.97;;;0.77;;
18726;SDS011;9492;51.888;5.186;2023-02-26T16:49:41;1.30;;;0.60;;
18726;SDS011;9492;51.888;5.186;2023-02-26T16:52:15;4.23;;;1.67;;
18726;SDS011;9492;51.888;5.186;2023-02-26T16:54:52;1.50;;;1.30;;
18726;SDS011;9492;51.888;5.186;2023-02-26T16:57:22;4.60;;;1.47;;
18726;SDS011;9492;51.888;5.186;2023-02-26T16:59:51;3.53;;;1.17;;
18726;SDS011;9492;51.888;5.186;2023-02-26T17:02:22;5.67;;;3.63;;
18726;SDS011;9492;51.888;5.186;2023-02-26T17:04:50;1.97;;;1.00;;
18726;SDS011;9492;51.888;5.186;2023-02-26T17:09:56;3.90;;;1.27;;
18726;SDS011;9492;51.888;5.186;2023-02-26T17:15:19;1.20;;;1.10;;
18726;SDS011;9492;51.888;5.186;2023-02-26T17:17:46;1.27;;;1.00;;
18726;SDS011;9492;51.888;5.186;2023-02-26T17:20:13;2.73;;;1.70;;
18726;SDS011;9492;51.888;5.186;2023-02-26T17:22:42;3.83;;;1.40;;
18726;SDS011;9492;51.888;5.186;2023-02-26T17:25:12;3.93;;;1.43;;
18726;SDS011;9492;51.888;5.186;2023-02-26T17:27:38;1.50;;;1.40;;
18726;SDS011;9492;51.888;5.186;2023-02-26T17:30:05;1.17;;;1.07;;
18726;SDS011;9492;51.888;5.186;2023-02-26T17:32:32;1.67;;;1.23;;
18726;SDS011;9492;51.888;5.186;2023-02-26T17:35:00;1.87;;;1.40;;
18726;SDS011;9492;51.888;5.186;2023-02-26T17:37:29;2.70;;;1.13;;
18726;SDS011;9492;51.888;5.186;2023-02-26T17:39:57;2.07;;;1.20;;
18726;SDS011;9492;51.888;5.186;2023-02-26T17:42:24;1.40;;;1.30;;
18726;SDS011;9492;51.888;5.186;2023-02-26T17:44:50;5.63;;;1.20;;
18726;SDS011;9492;51.888;5.186;2023-02-26T17:47:24;2.50;;;1.40;;
18726;SDS011;9492;51.888;5.186;2023-02-26T17:49:51;4.53;;;1.90;;
18726;SDS011;9492;51.888;5.186;2023-02-26T17:52:25;3.30;;;1.73;;
18726;SDS011;9492;51.888;5.186;2023-02-26T17:54:54;2.00;;;1.80;;
18726;SDS011;9492;51.888;5.186;2023-02-26T17:57:26;2.07;;;1.50;;
18726;SDS011;9492;51.888;5.186;2023-02-26T17:59:58;2.90;;;1.20;;
18726;SDS011;9492;51.888;5.186;2023-02-26T18:02:28;2.80;;;0.97;;
18726;SDS011;9492;51.888;5.186;2023-02-26T18:04:55;4.17;;;1.37;;
18726;SDS011;9492;51.888;5.186;2023-02-26T18:07:21;2.47;;;1.27;;
18726;SDS011;9492;51.888;5.186;2023-02-26T18:09:48;2.67;;;1.23;;
18726;SDS011;9492;51.888;5.186;2023-02-26T18:12:19;2.67;;;1.43;;
18726;SDS011;9492;51.888;5.186;2023-02-26T18:14:48;3.13;;;1.53;;
18726;SDS011;9492;51.888;5.186;2023-02-26T18:17:25;3.97;;;1.90;;
18726;SDS011;9492;51.888;5.186;2023-02-26T18:19:54;2.37;;;1.73;;
18726;SDS011;9492;51.888;5.186;2023-02-26T18:22:21;6.90;;;1.80;;
18726;SDS011;9492;51.888;5.186;2023-02-26T18:24:53;4.77;;;2.13;;
18726;SDS011;9492;51.888;5.186;2023-02-26T18:27:20;3.10;;;1.80;;
18726;SDS011;9492;51.888;5.186;2023-02-26T18:29:47;3.17;;;2.23;;
18726;SDS011;9492;51.888;5.186;2023-02-26T18:32:14;5.07;;;2.03;;
18726;SDS011;9492;51.888;5.186;2023-02-26T18:34:43;4.43;;;2.10;;
18726;SDS011;9492;51.888;5.186;2023-02-26T18:37:11;5.87;;;2.53;;
18726;SDS011;9492;51.888;5.186;2023-02-26T18:39:43;5.53;;;1.90;;
18726;SDS011;9492;51.888;5.186;2023-02-26T18:42:13;3.10;;;1.67;;
18726;SDS011;9492;51.888;5.186;2023-02-26T18:44:51;3.27;;;1.80;;
18726;SDS011;9492;51.888;5.186;2023-02-26T18:47:21;4.07;;;2.43;;